sensor_id;sensor_type;location;lat;lon;timestamp;P1;durP1;ratioP1;P2;durP2;ratioP2
36443;SDS011;24692;45.642;13.806;2023-07-29T00:01:49;4.70;;;3.22;;
36443;SDS011;24692;45.642;13.806;2023-07-29T00:04:16;5.68;;;3.50;;
36443;SDS011;24692;45.642;13.806;2023-07-29T00:06:42;6.30;;;2.85;;
36443;SDS011;24692;45.642;13.806;2023-07-29T00:09:07;6.03;;;3.15;;
36443;SDS011;24692;45.642;13.806;2023-07-29T00:11:33;3.53;;;3.15;;
36443;SDS011;24692;45.642;13.806;2023-07-29T00:14:00;5.05;;;2.88;;
36443;SDS011;24692;45.642;13.806;2023-07-29T00:16:26;4.57;;;3.10;;
36443;SDS011;24692;45.642;13.806;2023-07-29T00:18:52;6.22;;;3.10;;
36443;SDS011;24692;45.642;13.806;2023-07-29T00:21:18;5.35;;;3.30;;
36443;SDS011;24692;45.642;13.806;2023-07-29T00:23:44;4.38;;;3.08;;
36443;SDS011;24692;45.642;13.806;2023-07-29T00:26:10;5.60;;;2.72;;
36443;SDS011;24692;45.642;13.806;2023-07-29T00:28:36;4.47;;;2.70;;
36443;SDS011;24692;45.642;13.806;2023-07-29T00:31:02;4.78;;;3.08;;
36443;SDS011;24692;45.642;13.806;2023-07-29T00:33:28;4.18;;;2.97;;
36443;SDS011;24692;45.642;13.806;2023-07-29T00:35:53;5.10;;;2.85;;
36443;SDS011;24692;45.642;13.806;2023-07-29T00:38:19;5.38;;;3.10;;
36443;SDS011;24692;45.642;13.806;2023-07-29T00:40:44;5.30;;;2.90;;
36443;SDS011;24692;45.642;13.806;2023-07-29T00:43:10;5.82;;;3.33;;
36443;SDS011;24692;45.642;13.806;2023-07-29T00:45:36;8.32;;;3.80;;
36443;SDS011;24692;45.642;13.806;2023-07-29T00:48:02;6.13;;;3.10;;
36443;SDS011;24692;45.642;13.806;2023-07-29T00:50:29;5.25;;;3.08;;
36443;SDS011;24692;45.642;13.806;2023-07-29T00:52:57;7.15;;;3.38;;
36443;SDS011;24692;45.642;13.806;2023-07-29T00:55:23;6.10;;;3.05;;
36443;SDS011;24692;45.642;13.806;2023-07-29T00:57:49;6.88;;;3.30;;
36443;SDS011;24692;45.642;13.806;2023-07-29T01:00:18;12.88;;;3.35;;
36443;SDS011;24692;45.642;13.806;2023-07-29T01:02:44;5.32;;;3.10;;
36443;SDS011;24692;45.642;13.806;2023-07-29T01:05:11;4.20;;;2.90;;
36443;SDS011;24692;45.642;13.806;2023-07-29T01:07:41;4.50;;;3.25;;
36443;SDS011;24692;45.642;13.806;2023-07-29T01:13:23;5.47;;;2.97;;
36443;SDS011;24692;45.642;13.806;2023-07-29T01:16:06;6.82;;;3.20;;
36443;SDS011;24692;45.642;13.806;2023-07-29T01:18:38;4.00;;;2.90;;
36443;SDS011;24692;45.642;13.806;2023-07-29T01:21:07;6.30;;;3.20;;
36443;SDS011;24692;45.642;13.806;2023-07-29T01:23:34;6.40;;;3.10;;
36443;SDS011;24692;45.642;13.806;2023-07-29T01:26:00;6.18;;;3.10;;
36443;SDS011;24692;45.642;13.806;2023-07-29T01:28:27;5.60;;;2.92;;
36443;SDS011;24692;45.642;13.806;2023-07-29T01:33:48;5.63;;;3.00;;
36443;SDS011;24692;45.642;13.806;2023-07-29T01:36:23;7.40;;;3.03;;
36443;SDS011;24692;45.642;13.806;2023-07-29T01:38:53;4.88;;;3.30;;
36443;SDS011;24692;45.642;13.806;2023-07-29T01:41:20;8.02;;;3.05;;
36443;SDS011;24692;45.642;13.806;2023-07-29T01:43:47;5.57;;;3.05;;
36443;SDS011;24692;45.642;13.806;2023-07-29T01:46:14;8.52;;;3.35;;
36443;SDS011;24692;45.642;13.806;2023-07-29T01:48:40;8.32;;;3.45;;
36443;SDS011;24692;45.642;13.806;2023-07-29T01:51:06;6.28;;;3.20;;
36443;SDS011;24692;45.642;13.806;2023-07-29T01:53:33;7.97;;;3.47;;
36443;SDS011;24692;45.642;13.806;2023-07-29T01:55:58;7.13;;;3.03;;
36443;SDS011;24692;45.642;13.806;2023-07-29T01:58:24;5.65;;;3.05;;
36443;SDS011;24692;45.642;13.806;2023-07-29T02:00:50;6.72;;;3.58;;
36443;SDS011;24692;45.642;13.806;2023-07-29T02:03:16;6.72;;;3.05;;
36443;SDS011;24692;45.642;13.806;2023-07-29T02:05:43;6.40;;;3.05;;
36443;SDS011;24692;45.642;13.806;2023-07-29T02:08:09;5.70;;;3.13;;
36443;SDS011;24692;45.642;13.806;2023-07-29T02:10:35;5.90;;;3.13;;
36443;SDS011;24692;45.642;13.806;2023-07-29T02:13:00;7.80;;;3.33;;
36443;SDS011;24692;45.642;13.806;2023-07-29T02:15:26;9.80;;;3.45;;
36443;SDS011;24692;45.642;13.806;2023-07-29T02:17:52;6.68;;;3.53;;
36443;SDS011;24692;45.642;13.806;2023-07-29T02:20:18;6.15;;;3.28;;
36443;SDS011;24692;45.642;13.806;2023-07-29T02:22:44;6.95;;;3.08;;
36443;SDS011;24692;45.642;13.806;2023-07-29T02:25:10;5.80;;;3.47;;
36443;SDS011;24692;45.642;13.806;2023-07-29T02:27:36;4.68;;;3.03;;
36443;SDS011;24692;45.642;13.806;2023-07-29T02:30:02;4.13;;;2.95;;
36443;SDS011;24692;45.642;13.806;2023-07-29T02:32:28;6.05;;;3.00;;
36443;SDS011;24692;45.642;13.806;2023-07-29T02:34:54;4.57;;;2.92;;
36443;SDS011;24692;45.642;13.806;2023-07-29T02:37:20;7.70;;;3.17;;
36443;SDS011;24692;45.642;13.806;2023-07-29T02:39:45;5.88;;;3.13;;
36443;SDS011;24692;45.642;13.806;2023-07-29T02:42:11;6.53;;;2.97;;
36443;SDS011;24692;45.642;13.806;2023-07-29T02:44:37;5.18;;;3.17;;
36443;SDS011;24692;45.642;13.806;2023-07-29T02:47:03;5.68;;;3.45;;
36443;SDS011;24692;45.642;13.806;2023-07-29T02:49:29;4.43;;;3.40;;
36443;SDS011;24692;45.642;13.806;2023-07-29T02:51:55;5.43;;;3.28;;
36443;SDS011;24692;45.642;13.806;2023-07-29T02:54:21;6.97;;;3.25;;
36443;SDS011;24692;45.642;13.806;2023-07-29T02:56:46;5.00;;;2.97;;
36443;SDS011;24692;45.642;13.806;2023-07-29T02:59:12;4.93;;;3.13;;
36443;SDS011;24692;45.642;13.806;2023-07-29T03:01:37;5.75;;;3.30;;
36443;SDS011;24692;45.642;13.806;2023-07-29T03:04:03;6.78;;;3.08;;
36443;SDS011;24692;45.642;13.806;2023-07-29T03:06:29;4.32;;;2.83;;
36443;SDS011;24692;45.642;13.806;2023-07-29T03:08:54;6.72;;;3.15;;
36443;SDS011;24692;45.642;13.806;2023-07-29T03:11:20;5.72;;;3.25;;
36443;SDS011;24692;45.642;13.806;2023-07-29T03:13:46;5.95;;;3.22;;
36443;SDS011;24692;45.642;13.806;2023-07-29T03:16:12;5.03;;;3.05;;
36443;SDS011;24692;45.642;13.806;2023-07-29T03:18:40;8.00;;;3.05;;
36443;SDS011;24692;45.642;13.806;2023-07-29T03:21:06;6.07;;;3.35;;
36443;SDS011;24692;45.642;13.806;2023-07-29T03:23:33;6.03;;;3.23;;
36443;SDS011;24692;45.642;13.806;2023-07-29T03:26:00;7.05;;;3.53;;
36443;SDS011;24692;45.642;13.806;2023-07-29T03:28:30;6.25;;;3.15;;
36443;SDS011;24692;45.642;13.806;2023-07-29T03:30:57;7.32;;;3.47;;
36443;SDS011;24692;45.642;13.806;2023-07-29T03:33:23;7.72;;;3.63;;
36443;SDS011;24692;45.642;13.806;2023-07-29T03:35:50;6.43;;;3.15;;
36443;SDS011;24692;45.642;13.806;2023-07-29T03:38:16;7.43;;;3.38;;
36443;SDS011;24692;45.642;13.806;2023-07-29T03:40:41;6.07;;;3.35;;
36443;SDS011;24692;45.642;13.806;2023-07-29T03:43:07;7.27;;;3.37;;
36443;SDS011;24692;45.642;13.806;2023-07-29T03:45:34;6.30;;;3.58;;
36443;SDS011;24692;45.642;13.806;2023-07-29T03:48:00;5.07;;;3.72;;
36443;SDS011;24692;45.642;13.806;2023-07-29T03:50:26;7.38;;;3.90;;
36443;SDS011;24692;45.642;13.806;2023-07-29T03:52:53;5.03;;;3.30;;
36443;SDS011;24692;45.642;13.806;2023-07-29T03:55:18;5.35;;;3.08;;
36443;SDS011;24692;45.642;13.806;2023-07-29T03:57:44;9.40;;;3.45;;
36443;SDS011;24692;45.642;13.806;2023-07-29T04:00:10;7.07;;;3.27;;
36443;SDS011;24692;45.642;13.806;2023-07-29T04:02:35;5.00;;;3.20;;
36443;SDS011;24692;45.642;13.806;2023-07-29T04:05:04;5.40;;;3.00;;
36443;SDS011;24692;45.642;13.806;2023-07-29T04:07:33;8.05;;;3.47;;
36443;SDS011;24692;45.642;13.806;2023-07-29T04:09:59;4.20;;;3.00;;
36443;SDS011;24692;45.642;13.806;2023-07-29T04:12:26;6.10;;;3.15;;
36443;SDS011;24692;45.642;13.806;2023-07-29T04:14:51;4.88;;;3.28;;
36443;SDS011;24692;45.642;13.806;2023-07-29T04:17:17;6.03;;;3.35;;
36443;SDS011;24692;45.642;13.806;2023-07-29T04:19:43;5.95;;;3.03;;
36443;SDS011;24692;45.642;13.806;2023-07-29T04:22:09;5.93;;;3.35;;
36443;SDS011;24692;45.642;13.806;2023-07-29T04:24:34;3.60;;;2.75;;
36443;SDS011;24692;45.642;13.806;2023-07-29T04:27:00;6.57;;;3.20;;
36443;SDS011;24692;45.642;13.806;2023-07-29T04:29:25;8.57;;;3.03;;
36443;SDS011;24692;45.642;13.806;2023-07-29T04:31:51;5.78;;;3.15;;
36443;SDS011;24692;45.642;13.806;2023-07-29T04:34:17;4.72;;;3.10;;
36443;SDS011;24692;45.642;13.806;2023-07-29T04:36:44;5.95;;;3.15;;
36443;SDS011;24692;45.642;13.806;2023-07-29T04:39:13;8.90;;;3.60;;
36443;SDS011;24692;45.642;13.806;2023-07-29T04:41:39;5.68;;;3.10;;
36443;SDS011;24692;45.642;13.806;2023-07-29T04:44:05;6.88;;;3.15;;
36443;SDS011;24692;45.642;13.806;2023-07-29T04:46:31;4.18;;;3.22;;
36443;SDS011;24692;45.642;13.806;2023-07-29T04:48:56;4.75;;;2.80;;
36443;SDS011;24692;45.642;13.806;2023-07-29T04:51:23;5.88;;;3.17;;
36443;SDS011;24692;45.642;13.806;2023-07-29T04:53:49;4.97;;;3.17;;
36443;SDS011;24692;45.642;13.806;2023-07-29T04:56:14;5.95;;;2.78;;
36443;SDS011;24692;45.642;13.806;2023-07-29T04:58:40;6.90;;;2.95;;
36443;SDS011;24692;45.642;13.806;2023-07-29T05:01:06;4.93;;;3.10;;
36443;SDS011;24692;45.642;13.806;2023-07-29T05:03:32;5.03;;;2.90;;
36443;SDS011;24692;45.642;13.806;2023-07-29T05:05:58;5.32;;;3.00;;
36443;SDS011;24692;45.642;13.806;2023-07-29T05:08:24;4.15;;;2.80;;
36443;SDS011;24692;45.642;13.806;2023-07-29T05:10:53;4.43;;;3.03;;
36443;SDS011;24692;45.642;13.806;2023-07-29T05:13:19;5.03;;;3.03;;
36443;SDS011;24692;45.642;13.806;2023-07-29T05:15:46;5.53;;;2.95;;
36443;SDS011;24692;45.642;13.806;2023-07-29T05:18:13;6.22;;;2.97;;
36443;SDS011;24692;45.642;13.806;2023-07-29T05:20:38;5.95;;;2.72;;
36443;SDS011;24692;45.642;13.806;2023-07-29T05:23:04;5.22;;;2.90;;
36443;SDS011;24692;45.642;13.806;2023-07-29T05:25:30;5.95;;;3.10;;
36443;SDS011;24692;45.642;13.806;2023-07-29T05:27:55;6.53;;;2.90;;
36443;SDS011;24692;45.642;13.806;2023-07-29T05:30:22;6.20;;;3.25;;
36443;SDS011;24692;45.642;13.806;2023-07-29T05:32:48;5.65;;;3.30;;
36443;SDS011;24692;45.642;13.806;2023-07-29T05:35:14;6.78;;;3.42;;
36443;SDS011;24692;45.642;13.806;2023-07-29T05:37:40;5.47;;;3.42;;
36443;SDS011;24692;45.642;13.806;2023-07-29T05:40:06;5.55;;;3.13;;
36443;SDS011;24692;45.642;13.806;2023-07-29T05:42:33;6.90;;;3.22;;
36443;SDS011;24692;45.642;13.806;2023-07-29T05:44:59;4.47;;;3.10;;
36443;SDS011;24692;45.642;13.806;2023-07-29T05:47:25;5.40;;;2.80;;
36443;SDS011;24692;45.642;13.806;2023-07-29T05:49:50;4.38;;;3.28;;
36443;SDS011;24692;45.642;13.806;2023-07-29T05:52:16;5.50;;;2.83;;
36443;SDS011;24692;45.642;13.806;2023-07-29T05:54:42;4.47;;;2.85;;
36443;SDS011;24692;45.642;13.806;2023-07-29T05:57:11;7.00;;;3.00;;
36443;SDS011;24692;45.642;13.806;2023-07-29T05:59:37;5.60;;;2.75;;
36443;SDS011;24692;45.642;13.806;2023-07-29T06:02:03;4.45;;;2.92;;
36443;SDS011;24692;45.642;13.806;2023-07-29T06:04:29;8.10;;;3.15;;
36443;SDS011;24692;45.642;13.806;2023-07-29T06:06:55;4.32;;;2.95;;
36443;SDS011;24692;45.642;13.806;2023-07-29T06:09:21;6.25;;;3.05;;
36443;SDS011;24692;45.642;13.806;2023-07-29T06:11:47;5.13;;;3.33;;
36443;SDS011;24692;45.642;13.806;2023-07-29T06:14:13;6.68;;;3.05;;
36443;SDS011;24692;45.642;13.806;2023-07-29T06:16:39;6.80;;;2.88;;
36443;SDS011;24692;45.642;13.806;2023-07-29T06:19:05;5.35;;;3.05;;
36443;SDS011;24692;45.642;13.806;2023-07-29T06:21:30;5.40;;;2.97;;
36443;SDS011;24692;45.642;13.806;2023-07-29T06:23:56;7.82;;;3.10;;
36443;SDS011;24692;45.642;13.806;2023-07-29T06:26:22;7.15;;;3.50;;
36443;SDS011;24692;45.642;13.806;2023-07-29T06:28:47;6.28;;;2.97;;
36443;SDS011;24692;45.642;13.806;2023-07-29T06:31:13;6.07;;;3.00;;
36443;SDS011;24692;45.642;13.806;2023-07-29T06:33:39;6.70;;;2.80;;
36443;SDS011;24692;45.642;13.806;2023-07-29T06:36:05;4.97;;;2.80;;
36443;SDS011;24692;45.642;13.806;2023-07-29T06:38:31;4.20;;;2.40;;
36443;SDS011;24692;45.642;13.806;2023-07-29T06:40:56;12.02;;;3.03;;
36443;SDS011;24692;45.642;13.806;2023-07-29T06:43:22;4.90;;;3.00;;
36443;SDS011;24692;45.642;13.806;2023-07-29T06:45:48;5.05;;;2.90;;
36443;SDS011;24692;45.642;13.806;2023-07-29T06:48:14;4.55;;;2.85;;
36443;SDS011;24692;45.642;13.806;2023-07-29T06:50:39;5.70;;;2.63;;
36443;SDS011;24692;45.642;13.806;2023-07-29T06:53:05;5.55;;;2.92;;
36443;SDS011;24692;45.642;13.806;2023-07-29T06:55:31;7.30;;;2.90;;
36443;SDS011;24692;45.642;13.806;2023-07-29T06:57:57;4.25;;;3.08;;
36443;SDS011;24692;45.642;13.806;2023-07-29T07:00:22;3.92;;;2.53;;
36443;SDS011;24692;45.642;13.806;2023-07-29T07:02:48;6.22;;;2.60;;
36443;SDS011;24692;45.642;13.806;2023-07-29T07:05:14;3.88;;;2.90;;
36443;SDS011;24692;45.642;13.806;2023-07-29T07:07:40;7.97;;;2.90;;
36443;SDS011;24692;45.642;13.806;2023-07-29T07:10:06;6.28;;;2.95;;
36443;SDS011;24692;45.642;13.806;2023-07-29T07:12:32;5.38;;;2.63;;
36443;SDS011;24692;45.642;13.806;2023-07-29T07:14:57;4.20;;;2.72;;
36443;SDS011;24692;45.642;13.806;2023-07-29T07:17:23;4.10;;;2.50;;
36443;SDS011;24692;45.642;13.806;2023-07-29T07:19:49;5.65;;;2.60;;
36443;SDS011;24692;45.642;13.806;2023-07-29T07:22:15;3.40;;;2.45;;
36443;SDS011;24692;45.642;13.806;2023-07-29T07:24:41;4.65;;;2.55;;
36443;SDS011;24692;45.642;13.806;2023-07-29T07:27:07;4.50;;;2.72;;
36443;SDS011;24692;45.642;13.806;2023-07-29T07:29:32;5.93;;;2.70;;
36443;SDS011;24692;45.642;13.806;2023-07-29T07:31:58;5.45;;;2.90;;
36443;SDS011;24692;45.642;13.806;2023-07-29T07:34:24;3.78;;;2.70;;
36443;SDS011;24692;45.642;13.806;2023-07-29T07:36:50;6.07;;;2.97;;
36443;SDS011;24692;45.642;13.806;2023-07-29T07:39:16;5.50;;;2.83;;
36443;SDS011;24692;45.642;13.806;2023-07-29T07:41:42;3.53;;;2.63;;
36443;SDS011;24692;45.642;13.806;2023-07-29T07:44:08;2.97;;;2.40;;
36443;SDS011;24692;45.642;13.806;2023-07-29T07:46:34;3.10;;;2.40;;
36443;SDS011;24692;45.642;13.806;2023-07-29T07:48:59;5.20;;;2.53;;
36443;SDS011;24692;45.642;13.806;2023-07-29T07:51:25;4.38;;;2.42;;
36443;SDS011;24692;45.642;13.806;2023-07-29T07:53:50;4.97;;;2.40;;
36443;SDS011;24692;45.642;13.806;2023-07-29T07:56:16;3.42;;;2.28;;
36443;SDS011;24692;45.642;13.806;2023-07-29T07:58:42;5.35;;;2.53;;
36443;SDS011;24692;45.642;13.806;2023-07-29T08:01:08;3.90;;;2.25;;
36443;SDS011;24692;45.642;13.806;2023-07-29T08:03:34;4.70;;;2.35;;
36443;SDS011;24692;45.642;13.806;2023-07-29T08:06:00;4.97;;;2.50;;
36443;SDS011;24692;45.642;13.806;2023-07-29T08:08:26;4.18;;;2.20;;
36443;SDS011;24692;45.642;13.806;2023-07-29T08:10:53;4.93;;;2.33;;
36443;SDS011;24692;45.642;13.806;2023-07-29T08:13:19;4.20;;;2.33;;
36443;SDS011;24692;45.642;13.806;2023-07-29T08:15:46;6.07;;;2.30;;
36443;SDS011;24692;45.642;13.806;2023-07-29T08:18:13;5.25;;;2.20;;
36443;SDS011;24692;45.642;13.806;2023-07-29T08:20:38;4.40;;;2.40;;
36443;SDS011;24692;45.642;13.806;2023-07-29T08:23:04;6.07;;;2.53;;
36443;SDS011;24692;45.642;13.806;2023-07-29T08:25:30;5.13;;;2.42;;
36443;SDS011;24692;45.642;13.806;2023-07-29T08:27:56;6.10;;;2.40;;
36443;SDS011;24692;45.642;13.806;2023-07-29T08:30:21;7.70;;;2.30;;
36443;SDS011;24692;45.642;13.806;2023-07-29T08:32:47;4.47;;;2.35;;
36443;SDS011;24692;45.642;13.806;2023-07-29T08:35:13;4.97;;;2.33;;
36443;SDS011;24692;45.642;13.806;2023-07-29T08:37:39;3.00;;;2.15;;
36443;SDS011;24692;45.642;13.806;2023-07-29T08:40:05;4.72;;;2.30;;
36443;SDS011;24692;45.642;13.806;2023-07-29T08:42:31;4.05;;;2.08;;
36443;SDS011;24692;45.642;13.806;2023-07-29T08:44:59;3.90;;;2.25;;
36443;SDS011;24692;45.642;13.806;2023-07-29T08:47:32;5.38;;;2.83;;
36443;SDS011;24692;45.642;13.806;2023-07-29T08:49:58;3.67;;;2.70;;
36443;SDS011;24692;45.642;13.806;2023-07-29T08:52:26;3.15;;;2.22;;
36443;SDS011;24692;45.642;13.806;2023-07-29T08:54:52;4.75;;;2.42;;
36443;SDS011;24692;45.642;13.806;2023-07-29T08:57:18;4.95;;;2.47;;
36443;SDS011;24692;45.642;13.806;2023-07-29T08:59:45;3.08;;;2.25;;
36443;SDS011;24692;45.642;13.806;2023-07-29T09:02:11;4.13;;;1.98;;
36443;SDS011;24692;45.642;13.806;2023-07-29T09:04:37;7.38;;;2.60;;
36443;SDS011;24692;45.642;13.806;2023-07-29T09:07:02;4.47;;;2.40;;
36443;SDS011;24692;45.642;13.806;2023-07-29T09:09:30;4.10;;;2.38;;
36443;SDS011;24692;45.642;13.806;2023-07-29T09:11:55;6.25;;;2.40;;
36443;SDS011;24692;45.642;13.806;2023-07-29T09:14:21;4.13;;;2.42;;
36443;SDS011;24692;45.642;13.806;2023-07-29T09:16:48;3.67;;;2.67;;
36443;SDS011;24692;45.642;13.806;2023-07-29T09:19:14;3.85;;;2.30;;
36443;SDS011;24692;45.642;13.806;2023-07-29T09:21:40;5.88;;;2.72;;
36443;SDS011;24692;45.642;13.806;2023-07-29T09:24:06;5.40;;;2.75;;
36443;SDS011;24692;45.642;13.806;2023-07-29T09:26:33;3.33;;;2.30;;
36443;SDS011;24692;45.642;13.806;2023-07-29T09:28:59;8.65;;;2.97;;
36443;SDS011;24692;45.642;13.806;2023-07-29T09:31:26;4.13;;;2.60;;
36443;SDS011;24692;45.642;13.806;2023-07-29T09:33:56;3.90;;;2.67;;
36443;SDS011;24692;45.642;13.806;2023-07-29T09:36:23;4.72;;;2.63;;
36443;SDS011;24692;45.642;13.806;2023-07-29T09:38:52;4.60;;;2.50;;
36443;SDS011;24692;45.642;13.806;2023-07-29T09:41:24;5.18;;;2.45;;
36443;SDS011;24692;45.642;13.806;2023-07-29T09:43:56;3.17;;;2.40;;
36443;SDS011;24692;45.642;13.806;2023-07-29T09:46:23;4.35;;;2.40;;
36443;SDS011;24692;45.642;13.806;2023-07-29T09:48:53;5.57;;;2.80;;
36443;SDS011;24692;45.642;13.806;2023-07-29T09:51:21;10.10;;;2.50;;
36443;SDS011;24692;45.642;13.806;2023-07-29T09:53:47;3.45;;;2.47;;
36443;SDS011;24692;45.642;13.806;2023-07-29T09:56:14;4.32;;;2.53;;
36443;SDS011;24692;45.642;13.806;2023-07-29T09:58:42;4.10;;;2.40;;
36443;SDS011;24692;45.642;13.806;2023-07-29T10:01:11;4.50;;;2.45;;
36443;SDS011;24692;45.642;13.806;2023-07-29T10:03:37;5.32;;;2.63;;
36443;SDS011;24692;45.642;13.806;2023-07-29T10:06:03;4.28;;;2.28;;
36443;SDS011;24692;45.642;13.806;2023-07-29T10:08:30;3.25;;;2.38;;
36443;SDS011;24692;45.642;13.806;2023-07-29T10:11:09;4.57;;;2.45;;
36443;SDS011;24692;45.642;13.806;2023-07-29T10:13:36;3.20;;;2.20;;
36443;SDS011;24692;45.642;13.806;2023-07-29T10:16:03;3.00;;;2.33;;
36443;SDS011;24692;45.642;13.806;2023-07-29T10:18:30;4.15;;;2.17;;
36443;SDS011;24692;45.642;13.806;2023-07-29T10:20:58;6.10;;;2.95;;
36443;SDS011;24692;45.642;13.806;2023-07-29T10:23:25;3.80;;;2.28;;
36443;SDS011;24692;45.642;13.806;2023-07-29T10:25:57;4.00;;;2.70;;
36443;SDS011;24692;45.642;13.806;2023-07-29T10:28:30;4.93;;;2.90;;
36443;SDS011;24692;45.642;13.806;2023-07-29T10:30:57;5.78;;;2.78;;
36443;SDS011;24692;45.642;13.806;2023-07-29T10:33:23;4.45;;;2.60;;
36443;SDS011;24692;45.642;13.806;2023-07-29T10:35:49;8.77;;;2.88;;
36443;SDS011;24692;45.642;13.806;2023-07-29T10:38:15;4.88;;;3.00;;
36443;SDS011;24692;45.642;13.806;2023-07-29T10:43:25;7.45;;;2.88;;
36443;SDS011;24692;45.642;13.806;2023-07-29T10:45:51;7.40;;;2.85;;
36443;SDS011;24692;45.642;13.806;2023-07-29T11:01:42;4.32;;;2.45;;
36443;SDS011;24692;45.642;13.806;2023-07-29T11:15:23;6.88;;;2.60;;
36443;SDS011;24692;45.642;13.806;2023-07-29T11:17:51;5.85;;;2.90;;
36443;SDS011;24692;45.642;13.806;2023-07-29T11:20:22;7.68;;;2.53;;
36443;SDS011;24692;45.642;13.806;2023-07-29T11:22:56;7.65;;;3.00;;
36443;SDS011;24692;45.642;13.806;2023-07-29T11:25:24;5.15;;;2.90;;
36443;SDS011;24692;45.642;13.806;2023-07-29T11:27:52;3.72;;;2.50;;
36443;SDS011;24692;45.642;13.806;2023-07-29T11:30:19;5.35;;;2.65;;
36443;SDS011;24692;45.642;13.806;2023-07-29T11:32:45;4.70;;;2.60;;
36443;SDS011;24692;45.642;13.806;2023-07-29T11:35:15;3.90;;;2.58;;
36443;SDS011;24692;45.642;13.806;2023-07-29T11:37:43;4.95;;;2.80;;
36443;SDS011;24692;45.642;13.806;2023-07-29T11:40:13;6.55;;;2.55;;
36443;SDS011;24692;45.642;13.806;2023-07-29T11:42:40;6.78;;;2.90;;
36443;SDS011;24692;45.642;13.806;2023-07-29T11:45:06;5.45;;;2.40;;
36443;SDS011;24692;45.642;13.806;2023-07-29T11:47:32;4.90;;;2.72;;
36443;SDS011;24692;45.642;13.806;2023-07-29T11:50:01;5.00;;;2.65;;
36443;SDS011;24692;45.642;13.806;2023-07-29T11:52:28;3.70;;;2.40;;
36443;SDS011;24692;45.642;13.806;2023-07-29T11:54:56;5.00;;;2.60;;
36443;SDS011;24692;45.642;13.806;2023-07-29T11:57:22;4.50;;;2.47;;
36443;SDS011;24692;45.642;13.806;2023-07-29T11:59:49;4.22;;;2.70;;
36443;SDS011;24692;45.642;13.806;2023-07-29T12:02:15;6.70;;;2.60;;
36443;SDS011;24692;45.642;13.806;2023-07-29T12:04:42;6.05;;;2.83;;
36443;SDS011;24692;45.642;13.806;2023-07-29T12:07:10;3.85;;;2.53;;
36443;SDS011;24692;45.642;13.806;2023-07-29T12:09:37;5.30;;;2.60;;
36443;SDS011;24692;45.642;13.806;2023-07-29T12:12:04;7.30;;;2.60;;
36443;SDS011;24692;45.642;13.806;2023-07-29T12:14:31;8.45;;;2.60;;
36443;SDS011;24692;45.642;13.806;2023-07-29T12:16:59;5.28;;;2.55;;
36443;SDS011;24692;45.642;13.806;2023-07-29T12:19:31;3.60;;;2.50;;
36443;SDS011;24692;45.642;13.806;2023-07-29T12:21:58;3.70;;;2.80;;
36443;SDS011;24692;45.642;13.806;2023-07-29T12:24:23;5.25;;;2.67;;
36443;SDS011;24692;45.642;13.806;2023-07-29T12:26:49;6.40;;;2.88;;
36443;SDS011;24692;45.642;13.806;2023-07-29T12:29:18;3.58;;;2.50;;
36443;SDS011;24692;45.642;13.806;2023-07-29T12:31:45;5.30;;;2.60;;
36443;SDS011;24692;45.642;13.806;2023-07-29T12:34:18;3.67;;;2.67;;
36443;SDS011;24692;45.642;13.806;2023-07-29T12:36:45;3.85;;;2.63;;
36443;SDS011;24692;45.642;13.806;2023-07-29T12:39:26;5.15;;;2.47;;
36443;SDS011;24692;45.642;13.806;2023-07-29T12:41:54;4.10;;;2.55;;
36443;SDS011;24692;45.642;13.806;2023-07-29T12:44:25;4.72;;;1.92;;
36443;SDS011;24692;45.642;13.806;2023-07-29T12:46:54;7.90;;;2.97;;
36443;SDS011;24692;45.642;13.806;2023-07-29T12:49:20;5.18;;;2.63;;
36443;SDS011;24692;45.642;13.806;2023-07-29T12:51:46;4.75;;;2.50;;
36443;SDS011;24692;45.642;13.806;2023-07-29T12:54:11;5.70;;;2.85;;
36443;SDS011;24692;45.642;13.806;2023-07-29T12:56:37;4.93;;;2.70;;
36443;SDS011;24692;45.642;13.806;2023-07-29T12:59:02;4.32;;;2.53;;
36443;SDS011;24692;45.642;13.806;2023-07-29T13:01:29;5.07;;;2.80;;
36443;SDS011;24692;45.642;13.806;2023-07-29T13:03:55;5.38;;;2.50;;
36443;SDS011;24692;45.642;13.806;2023-07-29T13:06:21;6.50;;;2.60;;
36443;SDS011;24692;45.642;13.806;2023-07-29T13:08:47;5.03;;;2.30;;
36443;SDS011;24692;45.642;13.806;2023-07-29T13:11:13;6.00;;;2.72;;
36443;SDS011;24692;45.642;13.806;2023-07-29T13:13:40;8.40;;;3.45;;
36443;SDS011;24692;45.642;13.806;2023-07-29T13:16:05;5.38;;;2.70;;
36443;SDS011;24692;45.642;13.806;2023-07-29T13:18:31;3.45;;;2.70;;
36443;SDS011;24692;45.642;13.806;2023-07-29T13:20:58;6.32;;;2.97;;
36443;SDS011;24692;45.642;13.806;2023-07-29T13:23:25;7.25;;;2.88;;
36443;SDS011;24692;45.642;13.806;2023-07-29T13:25:51;5.53;;;2.65;;
36443;SDS011;24692;45.642;13.806;2023-07-29T13:28:16;7.20;;;2.75;;
36443;SDS011;24692;45.642;13.806;2023-07-29T13:30:42;5.18;;;2.72;;
36443;SDS011;24692;45.642;13.806;2023-07-29T13:33:08;3.60;;;2.70;;
36443;SDS011;24692;45.642;13.806;2023-07-29T13:35:34;6.93;;;3.00;;
36443;SDS011;24692;45.642;13.806;2023-07-29T13:38:00;6.57;;;2.80;;
36443;SDS011;24692;45.642;13.806;2023-07-29T13:40:26;3.70;;;2.50;;
36443;SDS011;24692;45.642;13.806;2023-07-29T13:42:52;6.65;;;3.00;;
36443;SDS011;24692;45.642;13.806;2023-07-29T13:45:18;4.80;;;2.78;;
36443;SDS011;24692;45.642;13.806;2023-07-29T13:47:44;4.78;;;2.75;;
36443;SDS011;24692;45.642;13.806;2023-07-29T13:50:10;4.40;;;2.65;;
36443;SDS011;24692;45.642;13.806;2023-07-29T13:52:36;4.78;;;2.60;;
36443;SDS011;24692;45.642;13.806;2023-07-29T13:55:03;6.13;;;2.80;;
36443;SDS011;24692;45.642;13.806;2023-07-29T13:57:29;6.40;;;2.92;;
36443;SDS011;24692;45.642;13.806;2023-07-29T13:59:55;5.45;;;2.90;;
36443;SDS011;24692;45.642;13.806;2023-07-29T14:02:20;4.25;;;2.55;;
36443;SDS011;24692;45.642;13.806;2023-07-29T14:04:46;4.05;;;2.80;;
36443;SDS011;24692;45.642;13.806;2023-07-29T14:07:12;4.80;;;2.80;;
36443;SDS011;24692;45.642;13.806;2023-07-29T14:09:37;4.75;;;2.50;;
36443;SDS011;24692;45.642;13.806;2023-07-29T14:12:03;6.68;;;2.90;;
36443;SDS011;24692;45.642;13.806;2023-07-29T14:14:30;4.18;;;2.60;;
36443;SDS011;24692;45.642;13.806;2023-07-29T14:16:56;5.72;;;2.90;;
36443;SDS011;24692;45.642;13.806;2023-07-29T14:19:21;6.18;;;2.78;;
36443;SDS011;24692;45.642;13.806;2023-07-29T14:21:48;8.85;;;2.75;;
36443;SDS011;24692;45.642;13.806;2023-07-29T14:24:14;5.10;;;3.08;;
36443;SDS011;24692;45.642;13.806;2023-07-29T14:26:40;8.23;;;2.53;;
36443;SDS011;24692;45.642;13.806;2023-07-29T14:29:06;5.68;;;2.60;;
36443;SDS011;24692;45.642;13.806;2023-07-29T14:31:32;5.47;;;2.70;;
36443;SDS011;24692;45.642;13.806;2023-07-29T14:33:58;6.00;;;2.60;;
36443;SDS011;24692;45.642;13.806;2023-07-29T14:36:24;5.22;;;2.88;;
36443;SDS011;24692;45.642;13.806;2023-07-29T14:38:50;4.75;;;2.53;;
36443;SDS011;24692;45.642;13.806;2023-07-29T14:41:16;5.90;;;2.80;;
36443;SDS011;24692;45.642;13.806;2023-07-29T14:43:42;5.05;;;2.92;;
36443;SDS011;24692;45.642;13.806;2023-07-29T14:46:07;6.95;;;2.65;;
36443;SDS011;24692;45.642;13.806;2023-07-29T14:48:33;5.00;;;2.72;;
36443;SDS011;24692;45.642;13.806;2023-07-29T14:50:59;7.22;;;2.72;;
36443;SDS011;24692;45.642;13.806;2023-07-29T14:53:24;3.25;;;2.42;;
36443;SDS011;24692;45.642;13.806;2023-07-29T14:55:50;7.15;;;2.55;;
36443;SDS011;24692;45.642;13.806;2023-07-29T14:58:16;3.72;;;2.58;;
36443;SDS011;24692;45.642;13.806;2023-07-29T15:00:42;6.07;;;2.60;;
36443;SDS011;24692;45.642;13.806;2023-07-29T15:03:07;4.30;;;2.58;;